createdAt,value
2022-10-23T00:01:21.731Z,6.81
2022-10-23T00:03:52.195Z,6.55
2022-10-23T00:06:19.552Z,6.47
2022-10-23T00:08:47.958Z,6.71
2022-10-23T00:11:17.463Z,6.52
2022-10-23T00:13:44.686Z,6.50
2022-10-23T00:16:11.423Z,6.68
2022-10-23T00:18:39.102Z,6.89
2022-10-23T00:21:08.198Z,6.71
2022-10-23T00:23:35.748Z,6.63
2022-10-23T00:26:02.881Z,6.49
2022-10-23T00:28:29.562Z,6.52
2022-10-23T00:30:56.495Z,6.43
2022-10-23T00:33:23.154Z,6.30
2022-10-23T00:35:49.839Z,6.63
2022-10-23T00:38:16.577Z,6.43
2022-10-23T00:40:45.253Z,6.18
2022-10-23T00:43:24.749Z,6.66
2022-10-23T00:45:52.030Z,6.62
2022-10-23T00:48:18.943Z,6.41
2022-10-23T00:50:47.691Z,6.61
2022-10-23T00:53:16.919Z,6.52
2022-10-23T00:55:46.854Z,6.49
2022-10-23T00:58:15.060Z,5.49
2022-10-23T01:00:48.681Z,6.26
2022-10-23T01:03:17.342Z,6.30
2022-10-23T01:06:05.222Z,6.38
2022-10-23T01:08:49.979Z,6.02
2022-10-23T01:11:45.944Z,6.28
2022-10-23T01:14:19.144Z,6.49
2022-10-23T01:17:19.538Z,6.23
2022-10-23T01:20:20.974Z,6.37
2022-10-23T01:22:56.709Z,6.48
2022-10-23T01:25:41.674Z,6.37
2022-10-23T01:28:20.568Z,5.97
2022-10-23T01:30:48.484Z,6.08
2022-10-23T01:33:29.232Z,5.98
2022-10-23T01:36:06.739Z,6.43
2022-10-23T01:39:01.328Z,6.41
2022-10-23T01:41:28.199Z,6.51
2022-10-23T01:43:57.059Z,6.56
2022-10-23T01:46:27.998Z,6.35
2022-10-23T01:48:57.646Z,6.58
2022-10-23T01:51:27.408Z,5.13
2022-10-23T01:53:59.889Z,6.68
2022-10-23T01:56:32.091Z,6.67
2022-10-23T01:59:04.126Z,6.39
2022-10-23T02:01:39.672Z,6.45
2022-10-23T02:04:10.284Z,6.28
2022-10-23T02:06:36.946Z,6.83
2022-10-23T02:09:04.572Z,6.84
2022-10-23T02:11:37.221Z,6.67
2022-10-23T02:14:20.705Z,6.92
2022-10-23T02:16:50.969Z,7.06
2022-10-23T02:19:36.518Z,6.99
2022-10-23T02:22:14.317Z,6.98
2022-10-23T02:24:50.936Z,6.72
2022-10-23T02:27:23.884Z,7.01
2022-10-23T02:30:17.003Z,6.69
2022-10-23T02:32:53.500Z,6.66
2022-10-23T02:35:23.118Z,7.03
2022-10-23T02:37:58.140Z,6.82
2022-10-23T02:40:40.667Z,7.29
2022-10-23T02:43:13.860Z,7.30
2022-10-23T02:45:54.051Z,7.23
2022-10-23T02:48:26.310Z,6.95
2022-10-23T02:51:07.429Z,7.25
2022-10-23T02:53:53.368Z,7.35
2022-10-23T02:56:36.649Z,7.28
2022-10-23T02:59:32.406Z,7.44
2022-10-23T03:02:18.142Z,7.52
2022-10-23T03:04:46.319Z,7.50
2022-10-23T03:07:14.341Z,7.62
2022-10-23T03:09:42.461Z,6.96
2022-10-23T03:12:09.132Z,7.60
2022-10-23T03:14:36.790Z,7.26
2022-10-23T03:17:04.592Z,7.83
2022-10-23T03:19:31.198Z,7.22
2022-10-23T03:21:58.546Z,7.15
2022-10-23T03:24:25.389Z,7.56
2022-10-23T03:26:52.182Z,7.83
2022-10-23T03:29:27.568Z,7.86
2022-10-23T03:31:55.795Z,7.85
2022-10-23T03:34:22.474Z,8.27
2022-10-23T03:36:49.102Z,7.96
2022-10-23T03:39:18.718Z,7.95
2022-10-23T03:41:45.473Z,8.21
2022-10-23T03:44:14.651Z,7.95
2022-10-23T03:46:44.412Z,7.95
2022-10-23T03:49:10.991Z,8.24
2022-10-23T03:51:41.554Z,8.11
2022-10-23T03:54:08.639Z,8.36
2022-10-23T03:56:35.995Z,7.93
2022-10-23T03:59:02.615Z,8.22
2022-10-23T04:01:29.325Z,8.12
2022-10-23T04:03:56.087Z,8.25
2022-10-23T04:06:25.063Z,7.87
2022-10-23T04:08:55.702Z,7.67
2022-10-23T04:11:22.357Z,7.75
2022-10-23T04:13:49.115Z,8.03
2022-10-23T04:16:16.059Z,7.63
2022-10-23T04:18:44.423Z,8.04
2022-10-23T04:21:11.794Z,7.71
2022-10-23T04:23:38.935Z,7.79
2022-10-23T04:26:11.180Z,7.78
2022-10-23T04:28:38.043Z,8.02
2022-10-23T04:31:04.763Z,7.61
2022-10-23T04:33:31.402Z,8.27
2022-10-23T04:35:58.133Z,8.08
2022-10-23T04:38:26.117Z,7.91
2022-10-23T04:40:52.793Z,8.24
2022-10-23T04:43:22.705Z,8.32
2022-10-23T04:45:50.208Z,8.38
2022-10-23T04:48:16.883Z,7.99
2022-10-23T04:51:10.552Z,8.35
2022-10-23T04:54:12.586Z,8.29
2022-10-23T04:56:42.048Z,8.37
2022-10-23T04:59:13.662Z,8.28
2022-10-23T05:01:41.122Z,8.46
2022-10-23T05:04:09.282Z,8.29
2022-10-23T05:06:58.709Z,8.22
2022-10-23T05:09:51.678Z,8.35
2022-10-23T05:12:41.367Z,8.36
2022-10-23T05:15:08.301Z,8.31
2022-10-23T05:17:37.555Z,8.33
2022-10-23T05:20:26.653Z,8.58
2022-10-23T05:22:56.902Z,8.78
2022-10-23T05:25:24.785Z,8.02
2022-10-23T05:27:59.863Z,8.44
2022-10-23T05:30:26.679Z,8.62
2022-10-23T05:32:54.626Z,8.56
2022-10-23T05:35:24.472Z,8.87
2022-10-23T05:37:54.543Z,8.96
2022-10-23T05:40:24.071Z,8.70
2022-10-23T05:42:56.538Z,8.81
2022-10-23T05:45:34.376Z,8.76
2022-10-23T05:48:35.174Z,8.73
2022-10-23T05:51:23.063Z,9.05
2022-10-23T05:54:16.075Z,9.04
2022-10-23T05:56:57.952Z,8.84
2022-10-23T05:59:57.067Z,8.79
2022-10-23T06:02:26.718Z,8.87
2022-10-23T06:05:00.126Z,8.88
2022-10-23T06:07:30.187Z,8.98
2022-10-23T06:10:00.449Z,8.87
2022-10-23T06:12:27.266Z,9.00
2022-10-23T06:14:54.167Z,8.86
2022-10-23T06:17:28.023Z,9.10
2022-10-23T06:20:00.709Z,8.95
2022-10-23T06:22:27.972Z,8.79
2022-10-23T06:25:04.582Z,9.14
2022-10-23T06:27:31.374Z,9.13
2022-10-23T06:29:58.025Z,9.03
2022-10-23T06:32:24.737Z,9.22
2022-10-23T06:35:07.401Z,9.02
2022-10-23T06:37:34.561Z,9.32
2022-10-23T06:40:22.033Z,9.30
2022-10-23T06:42:57.232Z,8.95
2022-10-23T06:45:46.163Z,9.24
2022-10-23T06:48:12.786Z,9.11
2022-10-23T06:50:58.880Z,9.61
2022-10-23T06:53:35.988Z,9.66
2022-10-23T06:56:12.045Z,9.68
2022-10-23T06:58:40.500Z,9.55
2022-10-23T07:01:14.612Z,9.52
2022-10-23T07:03:42.783Z,9.65
2022-10-23T07:06:10.698Z,9.72
2022-10-23T07:08:38.424Z,9.75
2022-10-23T07:11:18.071Z,9.75
2022-10-23T07:13:47.285Z,9.30
2022-10-23T07:16:19.602Z,9.76
2022-10-23T07:18:47.190Z,9.64
2022-10-23T07:21:31.188Z,9.75
2022-10-23T07:24:15.461Z,9.51
2022-10-23T07:26:42.514Z,9.10
2022-10-23T07:29:10.139Z,9.81
2022-10-23T07:31:36.926Z,9.69
2022-10-23T07:34:22.145Z,9.67
2022-10-23T07:37:00.318Z,9.68
2022-10-23T07:39:27.154Z,9.81
2022-10-23T07:41:53.808Z,9.71
2022-10-23T07:44:22.091Z,9.22
2022-10-23T07:46:51.166Z,9.51
2022-10-23T07:49:17.926Z,9.77
2022-10-23T07:51:49.020Z,9.51
2022-10-23T07:54:18.862Z,9.40
2022-10-23T07:56:48.287Z,9.73
2022-10-23T07:59:24.084Z,9.78
2022-10-23T08:01:57.804Z,9.89
2022-10-23T08:04:30.726Z,9.53
2022-10-23T08:07:07.621Z,9.52
2022-10-23T08:09:39.616Z,9.66
2022-10-23T08:12:07.815Z,9.89
2022-10-23T08:14:34.452Z,9.95
2022-10-23T08:19:54.872Z,9.99
2022-10-23T08:22:21.827Z,9.93
2022-10-23T08:24:48.530Z,9.47
2022-10-23T08:27:15.896Z,9.65
2022-10-23T08:29:45.591Z,9.95
2022-10-23T08:32:12.388Z,9.80
2022-10-23T08:34:54.364Z,9.81
2022-10-23T08:37:23.634Z,10.21
2022-10-23T08:39:52.651Z,10.28
2022-10-23T08:42:27.490Z,10.41
2022-10-23T08:45:36.677Z,10.51
2022-10-23T08:48:21.252Z,10.55
2022-10-23T08:51:34.659Z,10.26
2022-10-23T08:54:28.098Z,10.27
2022-10-23T08:57:02.641Z,10.62
2022-10-23T08:59:40.544Z,10.66
2022-10-23T09:03:01.378Z,10.86
2022-10-23T09:05:32.956Z,10.81
2022-10-23T09:08:18.483Z,10.81
2022-10-23T09:10:57.210Z,10.77
2022-10-23T09:13:29.969Z,10.88
2022-10-23T09:16:13.336Z,10.56
2022-10-23T09:18:41.899Z,11.15
2022-10-23T09:21:09.913Z,11.13
2022-10-23T09:23:36.874Z,11.35
2022-10-23T09:26:13.066Z,11.31
2022-10-23T09:28:49.276Z,11.36
2022-10-23T09:31:17.051Z,11.34
2022-10-23T09:34:01.224Z,11.18
2022-10-23T09:36:29.439Z,11.35
2022-10-23T09:38:59.038Z,11.19
2022-10-23T09:41:28.681Z,11.27
2022-10-23T09:44:01.073Z,11.53
2022-10-23T09:46:38.705Z,11.73
2022-10-23T09:49:05.990Z,11.51
2022-10-23T09:51:32.894Z,11.64
2022-10-23T09:54:01.200Z,11.90
2022-10-23T09:56:40.012Z,12.01
2022-10-23T09:59:31.066Z,11.79
2022-10-23T10:02:00.890Z,11.90
2022-10-23T10:04:41.508Z,11.82
2022-10-23T10:07:24.417Z,12.34
2022-10-23T10:09:53.162Z,12.26
2022-10-23T10:12:32.846Z,12.35
2022-10-23T10:15:22.398Z,12.49
2022-10-23T10:18:10.773Z,12.90
2022-10-23T10:20:43.164Z,12.99
2022-10-23T10:23:12.898Z,12.97
2022-10-23T10:25:54.716Z,12.99
2022-10-23T10:28:45.707Z,12.91
2022-10-23T10:31:37.228Z,13.05
2022-10-23T10:34:07.077Z,13.19
2022-10-23T10:37:01.647Z,13.28
2022-10-23T10:39:38.405Z,13.42
2022-10-23T10:42:24.754Z,13.47
2022-10-23T10:45:14.533Z,13.49
2022-10-23T10:47:51.741Z,13.55
2022-10-23T10:50:51.507Z,13.64
2022-10-23T10:53:44.365Z,13.72
2022-10-23T10:56:17.690Z,13.61
2022-10-23T10:58:47.358Z,13.82
2022-10-23T11:01:29.338Z,14.10
2022-10-23T11:04:11.860Z,14.26
2022-10-23T11:06:38.824Z,13.97
2022-10-23T11:09:21.032Z,14.46
2022-10-23T11:11:49.203Z,13.96
2022-10-23T11:14:22.195Z,14.77
2022-10-23T11:16:58.393Z,14.31
2022-10-23T11:19:34.591Z,14.40
2022-10-23T11:22:06.671Z,13.99
2022-10-23T11:24:48.153Z,14.78
2022-10-23T11:27:19.306Z,15.21
2022-10-23T11:30:17.161Z,15.35
2022-10-23T11:33:01.992Z,15.45
2022-10-23T11:35:41.313Z,15.22
2022-10-23T11:38:37.321Z,15.62
2022-10-23T11:41:07.153Z,15.62
2022-10-23T11:44:01.591Z,16.09
2022-10-23T11:46:32.582Z,16.20
2022-10-23T11:49:02.534Z,16.13
2022-10-23T11:51:29.238Z,16.21
2022-10-23T11:54:24.937Z,16.27
2022-10-23T11:57:11.274Z,16.49
2022-10-23T11:59:50.098Z,16.95
2022-10-23T12:02:36.779Z,17.30
2022-10-23T12:05:29.569Z,16.91
2022-10-23T12:07:58.771Z,17.49
2022-10-23T12:10:45.970Z,17.77
2022-10-23T12:13:45.644Z,17.09
2022-10-23T12:16:13.259Z,17.37
2022-10-23T12:18:51.823Z,17.58
2022-10-23T12:21:21.795Z,17.30
2022-10-23T12:23:54.665Z,17.17
2022-10-23T12:26:21.266Z,17.14
2022-10-23T12:29:18.951Z,17.22
2022-10-23T12:32:03.904Z,17.90
2022-10-23T12:34:54.473Z,17.81
2022-10-23T12:37:27.203Z,17.80
2022-10-23T12:39:56.061Z,18.02
2022-10-23T12:42:25.209Z,17.91
2022-10-23T12:45:44.450Z,17.95
2022-10-23T12:48:20.934Z,17.29
2022-10-23T12:50:53.739Z,16.74
2022-10-23T12:53:22.934Z,17.12
2022-10-23T12:56:13.075Z,16.89
2022-10-23T12:58:50.072Z,17.51
2022-10-23T13:01:31.595Z,18.10
2022-10-23T13:04:33.281Z,18.37
2022-10-23T13:07:02.870Z,17.87
2022-10-23T13:09:38.204Z,17.71
2022-10-23T13:12:30.732Z,17.27
2022-10-23T13:15:03.436Z,16.95
2022-10-23T13:17:59.240Z,16.69
2022-10-23T13:20:28.399Z,16.66
2022-10-23T13:23:18.129Z,16.71
2022-10-23T13:26:01.050Z,16.52
2022-10-23T13:28:31.686Z,16.67
2022-10-23T13:31:04.193Z,16.98
2022-10-23T13:33:43.164Z,16.48
2022-10-23T13:36:16.662Z,17.02
2022-10-23T13:38:46.186Z,16.62
2022-10-23T13:41:16.587Z,16.71
2022-10-23T13:43:44.380Z,16.78
2022-10-23T13:46:14.969Z,16.86
2022-10-23T13:48:41.599Z,17.01
2022-10-23T13:51:15.879Z,17.02
2022-10-23T13:53:42.504Z,16.95
2022-10-23T13:56:12.863Z,16.88
2022-10-23T13:58:39.906Z,16.65
2022-10-23T14:01:12.367Z,16.52
2022-10-23T14:03:39.036Z,16.31
2022-10-23T14:06:06.075Z,16.06
2022-10-23T14:08:32.684Z,16.30
2022-10-23T14:10:59.303Z,15.90
2022-10-23T14:13:25.900Z,15.85
2022-10-23T14:15:56.370Z,16.13
2022-10-23T14:18:23.318Z,16.18
2022-10-23T14:20:50.378Z,16.18
2022-10-23T14:23:17.010Z,15.91
2022-10-23T14:25:43.759Z,15.60
2022-10-23T14:28:10.385Z,15.86
2022-10-23T14:30:37.712Z,16.09
2022-10-23T14:33:05.028Z,16.14
2022-10-23T14:35:31.698Z,15.60
2022-10-23T14:37:58.648Z,15.46
2022-10-23T14:40:25.446Z,15.77
2022-10-23T14:42:52.145Z,15.80
2022-10-23T14:45:18.845Z,15.69
2022-10-23T14:47:46.328Z,15.72
2022-10-23T14:50:13.818Z,15.70
2022-10-23T14:52:40.508Z,15.62
2022-10-23T14:55:07.664Z,15.76
2022-10-23T14:57:34.314Z,15.65
2022-10-23T15:00:01.153Z,15.85
2022-10-23T15:02:27.848Z,15.52
2022-10-23T15:04:54.553Z,15.47
2022-10-23T15:07:21.585Z,15.31
2022-10-23T15:09:48.308Z,15.18
2022-10-23T15:12:14.895Z,14.99
2022-10-23T15:14:41.525Z,15.20
2022-10-23T15:17:09.775Z,15.12
2022-10-23T15:19:39.737Z,14.94
2022-10-23T15:22:06.349Z,14.79
2022-10-23T15:24:33.018Z,14.82
2022-10-23T15:27:00.331Z,14.84
2022-10-23T15:29:27.064Z,14.75
2022-10-23T15:31:57.027Z,14.60
2022-10-23T15:34:26.161Z,14.70
2022-10-23T15:36:54.254Z,14.61
2022-10-23T15:39:26.465Z,14.42
2022-10-23T15:41:56.148Z,14.55
2022-10-23T15:44:26.030Z,14.19
2022-10-23T15:46:53.188Z,14.20
2022-10-23T15:49:20.269Z,13.99
2022-10-23T15:51:46.965Z,14.11
2022-10-23T15:54:17.071Z,14.04
2022-10-23T15:56:44.463Z,14.09
2022-10-23T15:59:11.543Z,13.77
2022-10-23T16:01:38.698Z,13.94
2022-10-23T16:04:05.709Z,13.88
2022-10-23T16:06:32.467Z,13.81
2022-10-23T16:08:59.417Z,13.80
2022-10-23T16:11:28.899Z,13.68
2022-10-23T16:13:57.618Z,13.59
2022-10-23T16:16:24.428Z,13.30
2022-10-23T16:18:51.265Z,13.26
2022-10-23T16:21:21.255Z,13.12
2022-10-23T16:23:48.677Z,13.48
2022-10-23T16:26:15.445Z,13.33
2022-10-23T16:28:43.888Z,13.42
2022-10-23T16:31:20.060Z,13.19
2022-10-23T16:33:48.742Z,13.24
2022-10-23T16:36:16.224Z,13.09
2022-10-23T16:39:10.760Z,13.18
2022-10-23T16:41:56.253Z,13.01
2022-10-23T16:44:27.191Z,12.99
2022-10-23T16:46:58.512Z,12.99
2022-10-23T16:49:25.188Z,12.25
2022-10-23T16:51:51.807Z,12.70
2022-10-23T16:54:18.527Z,12.37
2022-10-23T16:56:45.303Z,12.76
2022-10-23T16:59:12.030Z,12.44
2022-10-23T17:01:38.864Z,12.54
2022-10-23T17:04:07.306Z,12.45
2022-10-23T17:06:34.234Z,12.53
2022-10-23T17:09:01.854Z,12.40
2022-10-23T17:11:30.995Z,12.57
2022-10-23T17:14:03.557Z,12.71
2022-10-23T17:16:36.196Z,12.73
2022-10-23T17:19:15.903Z,12.71
2022-10-23T17:21:51.845Z,12.44
2022-10-23T17:24:19.693Z,12.67
2022-10-23T17:26:46.403Z,12.67
2022-10-23T17:29:16.892Z,12.70
2022-10-23T17:31:46.407Z,12.59
2022-10-23T17:34:16.063Z,12.26
2022-10-23T17:36:45.581Z,11.52
2022-10-23T17:39:14.984Z,11.88
2022-10-23T17:41:42.423Z,11.95
2022-10-23T17:44:09.110Z,11.69
2022-10-23T17:46:35.972Z,11.96
2022-10-23T17:49:04.161Z,12.18
2022-10-23T17:51:33.070Z,11.98
2022-10-23T17:54:03.908Z,11.79
2022-10-23T17:56:32.611Z,11.76
2022-10-23T17:59:02.200Z,11.81
2022-10-23T18:01:29.749Z,11.89
2022-10-23T18:03:59.892Z,11.51
2022-10-23T18:06:29.847Z,11.56
2022-10-23T18:08:56.991Z,11.79
2022-10-23T18:11:36.314Z,11.41
2022-10-23T18:14:04.557Z,11.03
2022-10-23T18:16:31.295Z,11.83
2022-10-23T18:19:00.201Z,11.12
2022-10-23T18:21:27.497Z,11.89
2022-10-23T18:23:54.689Z,11.55
2022-10-23T18:26:27.267Z,11.91
2022-10-23T18:28:59.073Z,11.81
2022-10-23T18:31:29.599Z,11.59
2022-10-23T18:34:04.329Z,11.45
2022-10-23T18:36:37.577Z,11.70
2022-10-23T18:39:05.879Z,11.75
2022-10-23T18:41:35.363Z,11.54
2022-10-23T18:44:02.572Z,11.42
2022-10-23T18:46:29.179Z,11.31
2022-10-23T18:48:55.808Z,11.43
2022-10-23T18:51:25.514Z,11.49
2022-10-23T18:53:52.474Z,11.26
2022-10-23T18:56:23.088Z,11.11
2022-10-23T18:58:51.264Z,11.12
2022-10-23T19:01:19.390Z,11.42
2022-10-23T19:03:46.524Z,11.29
2022-10-23T19:06:14.808Z,11.47
2022-10-23T19:08:43.356Z,11.38
2022-10-23T19:11:12.236Z,11.42
2022-10-23T19:13:39.608Z,11.33
2022-10-23T19:16:33.065Z,11.28
2022-10-23T19:19:04.142Z,10.90
2022-10-23T19:21:35.370Z,11.12
2022-10-23T19:24:05.820Z,11.06
2022-10-23T19:26:35.870Z,11.32
2022-10-23T19:29:03.045Z,10.93
2022-10-23T19:31:30.403Z,10.97
2022-10-23T19:33:57.094Z,11.21
2022-10-23T19:36:23.833Z,11.07
2022-10-23T19:38:50.822Z,11.07
2022-10-23T19:41:18.837Z,11.15
2022-10-23T19:43:45.621Z,10.96
2022-10-23T19:46:12.549Z,11.06
2022-10-23T19:48:43.623Z,11.21
2022-10-23T19:51:10.720Z,10.80
2022-10-23T19:53:37.502Z,10.85
2022-10-23T19:56:09.851Z,10.79
2022-10-23T19:58:36.569Z,10.58
2022-10-23T20:01:15.937Z,11.13
2022-10-23T20:03:45.484Z,11.39
2022-10-23T20:06:14.743Z,11.02
2022-10-23T20:08:41.790Z,11.26
2022-10-23T20:11:09.582Z,11.42
2022-10-23T20:13:36.747Z,11.12
2022-10-23T20:16:03.974Z,11.48
2022-10-23T20:18:30.706Z,10.75
2022-10-23T20:20:57.418Z,11.06
2022-10-23T20:23:24.106Z,10.72
2022-10-23T20:25:50.827Z,10.64
2022-10-23T20:28:17.540Z,10.91
2022-10-23T20:30:45.994Z,10.69
2022-10-23T20:33:12.675Z,10.47
2022-10-23T20:35:41.684Z,10.69
2022-10-23T20:38:08.748Z,10.91
2022-10-23T20:40:35.778Z,10.90
2022-10-23T20:43:02.427Z,10.81
2022-10-23T20:45:29.143Z,10.78
2022-10-23T20:47:55.914Z,10.11
2022-10-23T20:50:23.827Z,10.60
2022-10-23T20:52:51.435Z,10.76
2022-10-23T20:55:18.922Z,10.99
2022-10-23T20:57:46.531Z,11.11
2022-10-23T21:00:16.975Z,10.76
2022-10-23T21:02:47.000Z,10.97
2022-10-23T21:05:15.362Z,10.96
2022-10-23T21:07:42.023Z,10.95
2022-10-23T21:10:08.917Z,10.85
2022-10-23T21:12:35.567Z,10.87
2022-10-23T21:15:02.212Z,10.77
2022-10-23T21:17:35.426Z,10.92
2022-10-23T21:20:02.554Z,10.80
2022-10-23T21:22:29.330Z,10.39
2022-10-23T21:24:57.004Z,10.76
2022-10-23T21:27:23.801Z,10.63
2022-10-23T21:29:50.599Z,10.86
2022-10-23T21:32:19.011Z,10.38
2022-10-23T21:34:45.765Z,10.47
2022-10-23T21:37:14.219Z,10.77
2022-10-23T21:39:43.106Z,10.93
2022-10-23T21:42:10.263Z,11.00
2022-10-23T21:44:36.960Z,10.81
2022-10-23T21:47:03.717Z,10.57
2022-10-23T21:49:30.355Z,10.71
2022-10-23T21:51:57.139Z,10.91
2022-10-23T21:54:23.891Z,10.41
2022-10-23T21:56:53.637Z,10.92
2022-10-23T21:59:24.172Z,10.93
2022-10-23T22:01:51.808Z,10.91
2022-10-23T22:04:19.697Z,10.99
2022-10-23T22:06:47.923Z,10.91
2022-10-23T22:09:19.387Z,11.00
2022-10-23T22:11:48.315Z,11.02
2022-10-23T22:14:14.942Z,11.05
2022-10-23T22:16:42.251Z,11.03
2022-10-23T22:19:12.572Z,10.71
2022-10-23T22:21:39.985Z,10.68
2022-10-23T22:24:07.224Z,10.46
2022-10-23T22:26:37.466Z,10.73
2022-10-23T22:29:10.000Z,10.42
2022-10-23T22:31:38.208Z,10.88
2022-10-23T22:34:18.677Z,11.06
2022-10-23T22:36:55.523Z,11.08
2022-10-23T22:39:23.055Z,10.91
2022-10-23T22:41:50.425Z,10.82
2022-10-23T22:44:17.110Z,10.87
2022-10-23T22:46:44.537Z,10.86
2022-10-23T22:49:11.441Z,10.86
2022-10-23T22:51:39.813Z,10.76
2022-10-23T22:54:06.952Z,10.75
2022-10-23T22:56:33.977Z,10.84
2022-10-23T22:59:00.772Z,10.71
2022-10-23T23:01:32.134Z,10.98
2022-10-23T23:04:08.737Z,10.80
2022-10-23T23:06:46.155Z,10.76
2022-10-23T23:09:17.784Z,10.95
2022-10-23T23:11:51.549Z,10.73
2022-10-23T23:14:23.125Z,11.00
2022-10-23T23:16:51.787Z,10.78
2022-10-23T23:19:18.441Z,10.75
2022-10-23T23:21:45.101Z,11.15
2022-10-23T23:24:12.258Z,11.10
2022-10-23T23:26:39.031Z,11.02
2022-10-23T23:29:05.746Z,10.88
2022-10-23T23:31:32.398Z,11.10
2022-10-23T23:33:59.266Z,11.52
2022-10-23T23:36:27.464Z,11.37
2022-10-23T23:38:56.404Z,12.00
2022-10-23T23:41:23.398Z,12.06
2022-10-23T23:43:50.448Z,12.26
2022-10-23T23:46:18.153Z,12.03
2022-10-23T23:48:48.065Z,11.99
2022-10-23T23:51:23.970Z,12.11
2022-10-23T23:53:51.208Z,12.16
2022-10-23T23:56:19.379Z,12.32
2022-10-23T23:58:46.030Z,12.24
